sensor_id;sensor_type;location;lat;lon;timestamp;P1;durP1;ratioP1;P2;durP2;ratioP2
3417;SDS011;68007;51.312;12.372;2024-03-22T00:01:53;11.63;;;8.27;;
3417;SDS011;68007;51.312;12.372;2024-03-22T00:04:20;12.10;;;8.37;;
3417;SDS011;68007;51.312;12.372;2024-03-22T00:06:49;12.53;;;8.33;;
3417;SDS011;68007;51.312;12.372;2024-03-22T00:09:16;16.13;;;9.20;;
3417;SDS011;68007;51.312;12.372;2024-03-22T00:11:44;10.90;;;7.97;;
3417;SDS011;68007;51.312;12.372;2024-03-22T00:14:11;12.50;;;8.90;;
3417;SDS011;68007;51.312;12.372;2024-03-22T00:16:40;13.63;;;9.13;;
3417;SDS011;68007;51.312;12.372;2024-03-22T00:19:08;13.30;;;9.07;;
3417;SDS011;68007;51.312;12.372;2024-03-22T00:21:35;14.40;;;9.20;;
3417;SDS011;68007;51.312;12.372;2024-03-22T00:24:02;9.90;;;7.77;;
3417;SDS011;68007;51.312;12.372;2024-03-22T00:26:30;11.80;;;8.60;;
3417;SDS011;68007;51.312;12.372;2024-03-22T00:28:56;13.57;;;8.90;;
3417;SDS011;68007;51.312;12.372;2024-03-22T00:31:24;9.70;;;7.53;;
3417;SDS011;68007;51.312;12.372;2024-03-22T00:33:52;11.57;;;8.37;;
3417;SDS011;68007;51.312;12.372;2024-03-22T00:36:20;18.40;;;8.67;;
3417;SDS011;68007;51.312;12.372;2024-03-22T00:38:46;13.77;;;9.00;;
3417;SDS011;68007;51.312;12.372;2024-03-22T00:41:14;16.57;;;8.80;;
3417;SDS011;68007;51.312;12.372;2024-03-22T00:43:40;14.80;;;9.37;;
3417;SDS011;68007;51.312;12.372;2024-03-22T00:46:08;11.50;;;8.07;;
3417;SDS011;68007;51.312;12.372;2024-03-22T00:48:35;17.23;;;9.50;;
3417;SDS011;68007;51.312;12.372;2024-03-22T00:51:04;12.93;;;8.90;;
3417;SDS011;68007;51.312;12.372;2024-03-22T00:53:30;18.80;;;10.00;;
3417;SDS011;68007;51.312;12.372;2024-03-22T00:55:58;12.70;;;9.23;;
3417;SDS011;68007;51.312;12.372;2024-03-22T00:58:25;14.93;;;10.03;;
3417;SDS011;68007;51.312;12.372;2024-03-22T01:00:53;18.77;;;11.43;;
3417;SDS011;68007;51.312;12.372;2024-03-22T01:03:20;16.70;;;9.77;;
3417;SDS011;68007;51.312;12.372;2024-03-22T01:05:48;17.43;;;11.60;;
3417;SDS011;68007;51.312;12.372;2024-03-22T01:08:16;15.60;;;10.57;;
3417;SDS011;68007;51.312;12.372;2024-03-22T01:10:43;17.80;;;11.47;;
3417;SDS011;68007;51.312;12.372;2024-03-22T01:13:10;17.50;;;11.80;;
3417;SDS011;68007;51.312;12.372;2024-03-22T01:15:37;18.63;;;11.10;;
3417;SDS011;68007;51.312;12.372;2024-03-22T01:18:04;15.83;;;11.30;;
3417;SDS011;68007;51.312;12.372;2024-03-22T01:20:32;15.63;;;11.27;;
3417;SDS011;68007;51.312;12.372;2024-03-22T01:22:59;20.40;;;13.47;;
3417;SDS011;68007;51.312;12.372;2024-03-22T01:25:28;18.47;;;11.27;;
3417;SDS011;68007;51.312;12.372;2024-03-22T01:27:55;19.40;;;11.67;;
3417;SDS011;68007;51.312;12.372;2024-03-22T01:30:22;21.67;;;13.07;;
3417;SDS011;68007;51.312;12.372;2024-03-22T01:32:49;17.50;;;11.47;;
3417;SDS011;68007;51.312;12.372;2024-03-22T01:35:17;17.63;;;11.53;;
3417;SDS011;68007;51.312;12.372;2024-03-22T01:37:43;20.43;;;13.73;;
3417;SDS011;68007;51.312;12.372;2024-03-22T01:40:11;21.37;;;13.03;;
3417;SDS011;68007;51.312;12.372;2024-03-22T01:42:40;18.47;;;12.37;;
3417;SDS011;68007;51.312;12.372;2024-03-22T01:45:08;20.53;;;13.37;;
3417;SDS011;68007;51.312;12.372;2024-03-22T01:47:34;21.60;;;12.40;;
3417;SDS011;68007;51.312;12.372;2024-03-22T01:50:02;19.77;;;12.57;;
3417;SDS011;68007;51.312;12.372;2024-03-22T01:52:29;23.77;;;14.63;;
3417;SDS011;68007;51.312;12.372;2024-03-22T01:54:57;24.77;;;13.30;;
3417;SDS011;68007;51.312;12.372;2024-03-22T01:57:24;21.50;;;14.70;;
3417;SDS011;68007;51.312;12.372;2024-03-22T01:59:53;21.83;;;13.63;;
3417;SDS011;68007;51.312;12.372;2024-03-22T02:02:21;20.77;;;14.10;;
3417;SDS011;68007;51.312;12.372;2024-03-22T02:04:50;22.80;;;14.80;;
3417;SDS011;68007;51.312;12.372;2024-03-22T02:07:17;25.50;;;14.90;;
3417;SDS011;68007;51.312;12.372;2024-03-22T02:09:44;27.23;;;13.93;;
3417;SDS011;68007;51.312;12.372;2024-03-22T02:12:11;22.37;;;15.33;;
3417;SDS011;68007;51.312;12.372;2024-03-22T02:14:39;28.63;;;16.33;;
3417;SDS011;68007;51.312;12.372;2024-03-22T02:17:06;23.70;;;15.10;;
3417;SDS011;68007;51.312;12.372;2024-03-22T02:19:34;23.97;;;15.90;;
3417;SDS011;68007;51.312;12.372;2024-03-22T02:22:01;26.23;;;15.47;;
3417;SDS011;68007;51.312;12.372;2024-03-22T02:24:29;26.00;;;15.53;;
3417;SDS011;68007;51.312;12.372;2024-03-22T02:26:56;26.90;;;15.27;;
3417;SDS011;68007;51.312;12.372;2024-03-22T02:29:23;24.37;;;15.33;;
3417;SDS011;68007;51.312;12.372;2024-03-22T02:31:50;21.90;;;14.80;;
3417;SDS011;68007;51.312;12.372;2024-03-22T02:34:17;25.87;;;17.10;;
3417;SDS011;68007;51.312;12.372;2024-03-22T02:36:44;24.90;;;16.37;;
3417;SDS011;68007;51.312;12.372;2024-03-22T02:39:11;26.17;;;15.63;;
3417;SDS011;68007;51.312;12.372;2024-03-22T02:41:39;29.43;;;16.20;;
3417;SDS011;68007;51.312;12.372;2024-03-22T02:44:07;28.40;;;15.37;;
3417;SDS011;68007;51.312;12.372;2024-03-22T02:46:33;20.13;;;14.30;;
3417;SDS011;68007;51.312;12.372;2024-03-22T02:49:01;22.10;;;14.00;;
3417;SDS011;68007;51.312;12.372;2024-03-22T02:51:27;22.87;;;14.10;;
3417;SDS011;68007;51.312;12.372;2024-03-22T02:53:55;23.20;;;14.90;;
3417;SDS011;68007;51.312;12.372;2024-03-22T02:56:21;21.93;;;14.23;;
3417;SDS011;68007;51.312;12.372;2024-03-22T02:58:50;23.80;;;13.90;;
3417;SDS011;68007;51.312;12.372;2024-03-22T03:01:17;24.63;;;14.17;;
3417;SDS011;68007;51.312;12.372;2024-03-22T03:03:44;20.73;;;13.27;;
3417;SDS011;68007;51.312;12.372;2024-03-22T03:06:11;23.00;;;13.90;;
3417;SDS011;68007;51.312;12.372;2024-03-22T03:08:39;24.13;;;13.80;;
3417;SDS011;68007;51.312;12.372;2024-03-22T03:11:06;22.07;;;13.77;;
3417;SDS011;68007;51.312;12.372;2024-03-22T03:13:33;21.93;;;12.80;;
3417;SDS011;68007;51.312;12.372;2024-03-22T03:16:02;20.00;;;12.10;;
3417;SDS011;68007;51.312;12.372;2024-03-22T03:18:29;20.63;;;11.90;;
3417;SDS011;68007;51.312;12.372;2024-03-22T03:20:56;17.67;;;11.67;;
3417;SDS011;68007;51.312;12.372;2024-03-22T03:23:23;18.80;;;11.50;;
3417;SDS011;68007;51.312;12.372;2024-03-22T03:25:50;18.27;;;11.47;;
3417;SDS011;68007;51.312;12.372;2024-03-22T03:28:17;16.23;;;10.60;;
3417;SDS011;68007;51.312;12.372;2024-03-22T03:30:44;14.30;;;10.13;;
3417;SDS011;68007;51.312;12.372;2024-03-22T03:33:13;16.80;;;10.90;;
3417;SDS011;68007;51.312;12.372;2024-03-22T03:35:39;14.80;;;9.80;;
3417;SDS011;68007;51.312;12.372;2024-03-22T03:38:07;13.60;;;8.20;;
3417;SDS011;68007;51.312;12.372;2024-03-22T03:40:33;18.17;;;9.27;;
3417;SDS011;68007;51.312;12.372;2024-03-22T03:43:02;14.07;;;9.10;;
3417;SDS011;68007;51.312;12.372;2024-03-22T03:45:28;14.53;;;9.53;;
3417;SDS011;68007;51.312;12.372;2024-03-22T03:47:56;14.00;;;8.40;;
3417;SDS011;68007;51.312;12.372;2024-03-22T03:50:24;14.07;;;10.27;;
3417;SDS011;68007;51.312;12.372;2024-03-22T03:52:51;11.10;;;8.33;;
3417;SDS011;68007;51.312;12.372;2024-03-22T03:55:18;13.70;;;8.80;;
3417;SDS011;68007;51.312;12.372;2024-03-22T03:57:45;11.47;;;7.60;;
3417;SDS011;68007;51.312;12.372;2024-03-22T04:00:12;14.17;;;7.90;;
3417;SDS011;68007;51.312;12.372;2024-03-22T04:02:40;16.03;;;8.73;;
3417;SDS011;68007;51.312;12.372;2024-03-22T04:05:06;12.70;;;8.37;;
3417;SDS011;68007;51.312;12.372;2024-03-22T04:07:35;11.70;;;8.10;;
3417;SDS011;68007;51.312;12.372;2024-03-22T04:10:02;11.33;;;7.23;;
3417;SDS011;68007;51.312;12.372;2024-03-22T04:12:30;13.40;;;7.00;;
3417;SDS011;68007;51.312;12.372;2024-03-22T04:14:56;12.20;;;7.00;;
3417;SDS011;68007;51.312;12.372;2024-03-22T04:17:24;13.57;;;7.10;;
3417;SDS011;68007;51.312;12.372;2024-03-22T04:19:50;10.50;;;6.83;;
3417;SDS011;68007;51.312;12.372;2024-03-22T04:22:18;10.13;;;6.03;;
3417;SDS011;68007;51.312;12.372;2024-03-22T04:24:46;11.53;;;7.10;;
3417;SDS011;68007;51.312;12.372;2024-03-22T04:27:13;11.50;;;6.73;;
3417;SDS011;68007;51.312;12.372;2024-03-22T04:29:40;12.00;;;5.43;;
3417;SDS011;68007;51.312;12.372;2024-03-22T04:32:07;11.87;;;6.80;;
3417;SDS011;68007;51.312;12.372;2024-03-22T04:34:34;10.00;;;6.53;;
3417;SDS011;68007;51.312;12.372;2024-03-22T04:37:01;11.47;;;6.30;;
3417;SDS011;68007;51.312;12.372;2024-03-22T04:39:29;13.07;;;6.20;;
3417;SDS011;68007;51.312;12.372;2024-03-22T04:41:58;10.80;;;6.63;;
3417;SDS011;68007;51.312;12.372;2024-03-22T04:44:25;10.33;;;5.77;;
3417;SDS011;68007;51.312;12.372;2024-03-22T04:46:53;8.97;;;5.53;;
3417;SDS011;68007;51.312;12.372;2024-03-22T04:49:20;8.27;;;5.50;;
3417;SDS011;68007;51.312;12.372;2024-03-22T04:51:47;11.90;;;6.83;;
3417;SDS011;68007;51.312;12.372;2024-03-22T04:54:14;8.73;;;5.53;;
3417;SDS011;68007;51.312;12.372;2024-03-22T04:56:41;9.67;;;5.50;;
3417;SDS011;68007;51.312;12.372;2024-03-22T04:59:10;7.57;;;5.20;;
3417;SDS011;68007;51.312;12.372;2024-03-22T05:01:36;8.90;;;5.87;;
3417;SDS011;68007;51.312;12.372;2024-03-22T05:04:04;9.57;;;5.80;;
3417;SDS011;68007;51.312;12.372;2024-03-22T05:06:30;8.27;;;5.53;;
3417;SDS011;68007;51.312;12.372;2024-03-22T05:08:58;7.50;;;5.10;;
3417;SDS011;68007;51.312;12.372;2024-03-22T05:11:24;7.90;;;4.87;;
3417;SDS011;68007;51.312;12.372;2024-03-22T05:13:52;9.23;;;5.13;;
3417;SDS011;68007;51.312;12.372;2024-03-22T05:16:20;7.63;;;5.50;;
3417;SDS011;68007;51.312;12.372;2024-03-22T05:18:49;9.53;;;5.50;;
3417;SDS011;68007;51.312;12.372;2024-03-22T05:21:16;8.60;;;5.07;;
3417;SDS011;68007;51.312;12.372;2024-03-22T05:23:43;6.80;;;5.10;;
3417;SDS011;68007;51.312;12.372;2024-03-22T05:26:10;10.00;;;5.30;;
3417;SDS011;68007;51.312;12.372;2024-03-22T05:28:37;10.27;;;5.53;;
3417;SDS011;68007;51.312;12.372;2024-03-22T05:31:04;6.63;;;4.37;;
3417;SDS011;68007;51.312;12.372;2024-03-22T05:33:33;8.87;;;5.10;;
3417;SDS011;68007;51.312;12.372;2024-03-22T05:35:59;8.07;;;5.30;;
3417;SDS011;68007;51.312;12.372;2024-03-22T05:38:27;8.73;;;5.47;;
3417;SDS011;68007;51.312;12.372;2024-03-22T05:40:53;7.07;;;4.40;;
3417;SDS011;68007;51.312;12.372;2024-03-22T05:43:20;6.80;;;4.93;;
3417;SDS011;68007;51.312;12.372;2024-03-22T05:45:47;8.37;;;4.97;;
3417;SDS011;68007;51.312;12.372;2024-03-22T05:48:15;7.03;;;5.33;;
3417;SDS011;68007;51.312;12.372;2024-03-22T05:50:43;9.93;;;5.27;;
3417;SDS011;68007;51.312;12.372;2024-03-22T05:53:10;10.43;;;6.10;;
3417;SDS011;68007;51.312;12.372;2024-03-22T05:55:37;7.73;;;5.10;;
3417;SDS011;68007;51.312;12.372;2024-03-22T05:58:04;8.00;;;5.10;;
3417;SDS011;68007;51.312;12.372;2024-03-22T06:00:31;9.53;;;4.83;;
3417;SDS011;68007;51.312;12.372;2024-03-22T06:02:58;8.00;;;5.00;;
3417;SDS011;68007;51.312;12.372;2024-03-22T06:05:25;6.67;;;4.40;;
3417;SDS011;68007;51.312;12.372;2024-03-22T06:07:54;6.83;;;4.50;;
3417;SDS011;68007;51.312;12.372;2024-03-22T06:10:20;7.30;;;4.47;;
3417;SDS011;68007;51.312;12.372;2024-03-22T06:12:48;8.60;;;4.60;;
3417;SDS011;68007;51.312;12.372;2024-03-22T06:15:14;6.70;;;4.13;;
3417;SDS011;68007;51.312;12.372;2024-03-22T06:17:42;9.73;;;4.87;;
3417;SDS011;68007;51.312;12.372;2024-03-22T06:20:09;8.37;;;5.20;;
3417;SDS011;68007;51.312;12.372;2024-03-22T06:22:37;8.20;;;5.27;;
3417;SDS011;68007;51.312;12.372;2024-03-22T06:25:05;5.07;;;4.23;;
3417;SDS011;68007;51.312;12.372;2024-03-22T06:27:34;8.87;;;5.30;;
3417;SDS011;68007;51.312;12.372;2024-03-22T06:30:00;8.20;;;4.73;;
3417;SDS011;68007;51.312;12.372;2024-03-22T06:32:29;6.43;;;4.70;;
3417;SDS011;68007;51.312;12.372;2024-03-22T06:34:55;5.87;;;4.30;;
3417;SDS011;68007;51.312;12.372;2024-03-22T06:37:23;8.73;;;4.70;;
3417;SDS011;68007;51.312;12.372;2024-03-22T06:39:49;7.77;;;4.30;;
3417;SDS011;68007;51.312;12.372;2024-03-22T06:42:18;7.00;;;4.90;;
3417;SDS011;68007;51.312;12.372;2024-03-22T06:44:45;8.40;;;4.80;;
3417;SDS011;68007;51.312;12.372;2024-03-22T06:47:12;9.20;;;5.63;;
3417;SDS011;68007;51.312;12.372;2024-03-22T06:49:39;6.40;;;4.33;;
3417;SDS011;68007;51.312;12.372;2024-03-22T06:52:06;7.17;;;5.30;;
3417;SDS011;68007;51.312;12.372;2024-03-22T06:54:33;9.37;;;5.63;;
3417;SDS011;68007;51.312;12.372;2024-03-22T06:57:00;8.27;;;5.40;;
3417;SDS011;68007;51.312;12.372;2024-03-22T06:59:28;8.80;;;5.20;;
3417;SDS011;68007;51.312;12.372;2024-03-22T07:01:55;18.97;;;6.20;;
3417;SDS011;68007;51.312;12.372;2024-03-22T07:04:22;8.30;;;5.70;;
3417;SDS011;68007;51.312;12.372;2024-03-22T07:06:50;9.30;;;5.37;;
3417;SDS011;68007;51.312;12.372;2024-03-22T07:09:16;8.17;;;5.97;;
3417;SDS011;68007;51.312;12.372;2024-03-22T07:11:44;11.33;;;6.13;;
3417;SDS011;68007;51.312;12.372;2024-03-22T07:14:11;10.87;;;6.20;;
3417;SDS011;68007;51.312;12.372;2024-03-22T07:16:39;14.83;;;5.90;;
3417;SDS011;68007;51.312;12.372;2024-03-22T07:19:06;7.20;;;5.23;;
3417;SDS011;68007;51.312;12.372;2024-03-22T07:21:33;13.57;;;6.13;;
3417;SDS011;68007;51.312;12.372;2024-03-22T07:24:00;14.00;;;7.27;;
3417;SDS011;68007;51.312;12.372;2024-03-22T07:26:27;13.73;;;6.67;;
3417;SDS011;68007;51.312;12.372;2024-03-22T07:28:54;14.60;;;7.87;;
3417;SDS011;68007;51.312;12.372;2024-03-22T07:31:21;11.50;;;7.17;;
3417;SDS011;68007;51.312;12.372;2024-03-22T07:33:49;11.37;;;6.60;;
3417;SDS011;68007;51.312;12.372;2024-03-22T07:36:18;13.20;;;7.23;;
3417;SDS011;68007;51.312;12.372;2024-03-22T07:38:45;14.00;;;7.43;;
3417;SDS011;68007;51.312;12.372;2024-03-22T07:41:12;10.90;;;6.70;;
3417;SDS011;68007;51.312;12.372;2024-03-22T07:43:39;12.87;;;7.80;;
3417;SDS011;68007;51.312;12.372;2024-03-22T07:46:06;10.37;;;6.40;;
3417;SDS011;68007;51.312;12.372;2024-03-22T07:48:33;12.80;;;7.57;;
3417;SDS011;68007;51.312;12.372;2024-03-22T07:51:02;9.40;;;6.63;;
3417;SDS011;68007;51.312;12.372;2024-03-22T07:53:29;12.80;;;7.10;;
3417;SDS011;68007;51.312;12.372;2024-03-22T07:55:56;13.40;;;6.70;;
3417;SDS011;68007;51.312;12.372;2024-03-22T07:58:23;15.00;;;6.67;;
3417;SDS011;68007;51.312;12.372;2024-03-22T08:00:50;13.77;;;6.43;;
3417;SDS011;68007;51.312;12.372;2024-03-22T08:03:17;13.03;;;8.00;;
3417;SDS011;68007;51.312;12.372;2024-03-22T08:05:44;14.70;;;7.53;;
3417;SDS011;68007;51.312;12.372;2024-03-22T08:08:12;11.23;;;7.10;;
3417;SDS011;68007;51.312;12.372;2024-03-22T08:10:40;13.00;;;7.30;;
3417;SDS011;68007;51.312;12.372;2024-03-22T08:13:06;12.07;;;7.07;;
3417;SDS011;68007;51.312;12.372;2024-03-22T08:15:34;12.70;;;7.90;;
3417;SDS011;68007;51.312;12.372;2024-03-22T08:18:01;13.90;;;8.00;;
3417;SDS011;68007;51.312;12.372;2024-03-22T08:20:29;12.10;;;7.70;;
3417;SDS011;68007;51.312;12.372;2024-03-22T08:22:58;11.83;;;7.27;;
3417;SDS011;68007;51.312;12.372;2024-03-22T08:25:27;14.57;;;7.80;;
3417;SDS011;68007;51.312;12.372;2024-03-22T08:27:53;12.70;;;7.43;;
3417;SDS011;68007;51.312;12.372;2024-03-22T08:30:21;13.50;;;8.33;;
3417;SDS011;68007;51.312;12.372;2024-03-22T08:32:47;16.20;;;8.27;;
3417;SDS011;68007;51.312;12.372;2024-03-22T08:35:15;18.33;;;8.20;;
3417;SDS011;68007;51.312;12.372;2024-03-22T08:37:42;23.83;;;9.47;;
3417;SDS011;68007;51.312;12.372;2024-03-22T08:40:10;14.60;;;8.57;;
3417;SDS011;68007;51.312;12.372;2024-03-22T08:42:39;17.00;;;9.60;;
3417;SDS011;68007;51.312;12.372;2024-03-22T08:45:08;18.10;;;10.20;;
3417;SDS011;68007;51.312;12.372;2024-03-22T08:47:35;18.13;;;10.40;;
3417;SDS011;68007;51.312;12.372;2024-03-22T08:50:02;25.13;;;12.40;;
3417;SDS011;68007;51.312;12.372;2024-03-22T08:52:29;18.00;;;10.50;;
3417;SDS011;68007;51.312;12.372;2024-03-22T08:54:58;21.53;;;12.60;;
3417;SDS011;68007;51.312;12.372;2024-03-22T08:57:24;19.23;;;12.07;;
3417;SDS011;68007;51.312;12.372;2024-03-22T08:59:53;21.60;;;12.27;;
3417;SDS011;68007;51.312;12.372;2024-03-22T09:02:21;23.77;;;14.33;;
3417;SDS011;68007;51.312;12.372;2024-03-22T09:04:48;22.10;;;13.50;;
3417;SDS011;68007;51.312;12.372;2024-03-22T09:07:15;23.03;;;13.00;;
3417;SDS011;68007;51.312;12.372;2024-03-22T09:09:43;24.80;;;12.90;;
3417;SDS011;68007;51.312;12.372;2024-03-22T09:12:09;20.93;;;12.57;;
3417;SDS011;68007;51.312;12.372;2024-03-22T09:14:37;24.23;;;12.90;;
3417;SDS011;68007;51.312;12.372;2024-03-22T09:17:05;20.73;;;12.80;;
3417;SDS011;68007;51.312;12.372;2024-03-22T09:19:32;19.93;;;12.63;;
3417;SDS011;68007;51.312;12.372;2024-03-22T09:21:59;20.90;;;12.70;;
3417;SDS011;68007;51.312;12.372;2024-03-22T09:24:26;21.23;;;11.67;;
3417;SDS011;68007;51.312;12.372;2024-03-22T09:26:53;22.97;;;12.33;;
3417;SDS011;68007;51.312;12.372;2024-03-22T09:29:21;20.53;;;12.27;;
3417;SDS011;68007;51.312;12.372;2024-03-22T09:31:47;21.33;;;12.27;;
3417;SDS011;68007;51.312;12.372;2024-03-22T09:34:17;25.90;;;12.27;;
3417;SDS011;68007;51.312;12.372;2024-03-22T09:36:45;18.47;;;11.50;;
3417;SDS011;68007;51.312;12.372;2024-03-22T09:39:13;17.70;;;11.03;;
3417;SDS011;68007;51.312;12.372;2024-03-22T09:41:42;17.60;;;10.03;;
3417;SDS011;68007;51.312;12.372;2024-03-22T09:44:12;21.67;;;11.03;;
3417;SDS011;68007;51.312;12.372;2024-03-22T09:46:39;18.00;;;10.53;;
3417;SDS011;68007;51.312;12.372;2024-03-22T09:49:09;18.70;;;10.30;;
3417;SDS011;68007;51.312;12.372;2024-03-22T09:51:37;16.40;;;9.43;;
3417;SDS011;68007;51.312;12.372;2024-03-22T09:54:06;14.47;;;9.67;;
3417;SDS011;68007;51.312;12.372;2024-03-22T09:56:34;18.00;;;10.00;;
3417;SDS011;68007;51.312;12.372;2024-03-22T09:59:04;15.20;;;9.27;;
3417;SDS011;68007;51.312;12.372;2024-03-22T10:01:31;16.57;;;9.90;;
3417;SDS011;68007;51.312;12.372;2024-03-22T10:04:00;15.03;;;9.20;;
3417;SDS011;68007;51.312;12.372;2024-03-22T10:06:26;16.90;;;9.60;;
3417;SDS011;68007;51.312;12.372;2024-03-22T10:08:59;17.10;;;10.07;;
3417;SDS011;68007;51.312;12.372;2024-03-22T10:11:25;15.97;;;8.60;;
3417;SDS011;68007;51.312;12.372;2024-03-22T10:13:53;15.90;;;8.77;;
3417;SDS011;68007;51.312;12.372;2024-03-22T10:16:21;19.77;;;9.07;;
3417;SDS011;68007;51.312;12.372;2024-03-22T10:18:48;14.67;;;8.33;;
3417;SDS011;68007;51.312;12.372;2024-03-22T10:21:17;15.00;;;8.47;;
3417;SDS011;68007;51.312;12.372;2024-03-22T10:23:46;16.37;;;9.30;;
3417;SDS011;68007;51.312;12.372;2024-03-22T10:26:15;11.30;;;7.23;;
3417;SDS011;68007;51.312;12.372;2024-03-22T10:28:46;14.93;;;8.37;;
3417;SDS011;68007;51.312;12.372;2024-03-22T10:31:13;13.30;;;8.37;;
3417;SDS011;68007;51.312;12.372;2024-03-22T10:33:41;13.73;;;8.50;;
3417;SDS011;68007;51.312;12.372;2024-03-22T10:36:10;16.37;;;8.60;;
3417;SDS011;68007;51.312;12.372;2024-03-22T10:38:39;16.73;;;9.93;;
3417;SDS011;68007;51.312;12.372;2024-03-22T10:41:06;13.77;;;8.87;;
3417;SDS011;68007;51.312;12.372;2024-03-22T10:43:35;14.67;;;8.50;;
3417;SDS011;68007;51.312;12.372;2024-03-22T10:46:01;14.50;;;8.97;;
3417;SDS011;68007;51.312;12.372;2024-03-22T10:48:31;12.23;;;7.60;;
3417;SDS011;68007;51.312;12.372;2024-03-22T10:50:59;11.83;;;7.97;;
3417;SDS011;68007;51.312;12.372;2024-03-22T10:53:28;14.70;;;7.43;;
3417;SDS011;68007;51.312;12.372;2024-03-22T10:55:58;16.30;;;9.00;;
3417;SDS011;68007;51.312;12.372;2024-03-22T10:58:28;16.97;;;8.07;;
3417;SDS011;68007;51.312;12.372;2024-03-22T11:00:56;12.93;;;9.13;;
3417;SDS011;68007;51.312;12.372;2024-03-22T11:03:24;11.40;;;6.90;;
3417;SDS011;68007;51.312;12.372;2024-03-22T11:05:53;16.90;;;8.33;;
3417;SDS011;68007;51.312;12.372;2024-03-22T11:08:23;10.17;;;7.47;;
3417;SDS011;68007;51.312;12.372;2024-03-22T11:10:50;12.80;;;7.80;;
3417;SDS011;68007;51.312;12.372;2024-03-22T11:13:17;13.47;;;7.40;;
3417;SDS011;68007;51.312;12.372;2024-03-22T11:15:48;14.37;;;7.37;;
3417;SDS011;68007;51.312;12.372;2024-03-22T11:18:17;15.00;;;8.43;;
3417;SDS011;68007;51.312;12.372;2024-03-22T11:20:44;14.70;;;9.10;;
3417;SDS011;68007;51.312;12.372;2024-03-22T11:23:11;12.20;;;8.40;;
3417;SDS011;68007;51.312;12.372;2024-03-22T11:25:38;13.57;;;8.30;;
3417;SDS011;68007;51.312;12.372;2024-03-22T11:28:06;14.40;;;8.70;;
3417;SDS011;68007;51.312;12.372;2024-03-22T11:30:33;13.37;;;8.40;;
3417;SDS011;68007;51.312;12.372;2024-03-22T11:33:00;16.00;;;8.40;;
3417;SDS011;68007;51.312;12.372;2024-03-22T11:35:29;14.20;;;8.87;;
3417;SDS011;68007;51.312;12.372;2024-03-22T11:37:56;14.73;;;9.67;;
3417;SDS011;68007;51.312;12.372;2024-03-22T11:40:24;16.20;;;10.27;;
3417;SDS011;68007;51.312;12.372;2024-03-22T11:42:53;17.80;;;9.10;;
3417;SDS011;68007;51.312;12.372;2024-03-22T11:45:21;16.57;;;9.10;;
3417;SDS011;68007;51.312;12.372;2024-03-22T11:47:49;17.60;;;10.73;;
3417;SDS011;68007;51.312;12.372;2024-03-22T11:50:16;19.83;;;10.97;;
3417;SDS011;68007;51.312;12.372;2024-03-22T11:52:45;18.10;;;10.33;;
3417;SDS011;68007;51.312;12.372;2024-03-22T11:55:13;25.23;;;9.90;;
3417;SDS011;68007;51.312;12.372;2024-03-22T11:57:41;16.57;;;10.03;;
3417;SDS011;68007;51.312;12.372;2024-03-22T12:00:13;20.03;;;11.97;;
3417;SDS011;68007;51.312;12.372;2024-03-22T12:02:42;19.67;;;11.10;;
3417;SDS011;68007;51.312;12.372;2024-03-22T12:05:09;15.90;;;10.73;;
3417;SDS011;68007;51.312;12.372;2024-03-22T12:07:37;17.53;;;11.17;;
3417;SDS011;68007;51.312;12.372;2024-03-22T12:10:07;22.73;;;12.10;;
3417;SDS011;68007;51.312;12.372;2024-03-22T12:12:35;22.00;;;13.50;;
3417;SDS011;68007;51.312;12.372;2024-03-22T12:15:02;18.20;;;11.70;;
3417;SDS011;68007;51.312;12.372;2024-03-22T12:17:30;18.13;;;11.20;;
3417;SDS011;68007;51.312;12.372;2024-03-22T12:19:56;17.23;;;11.60;;
3417;SDS011;68007;51.312;12.372;2024-03-22T12:22:24;22.13;;;12.90;;
3417;SDS011;68007;51.312;12.372;2024-03-22T12:24:51;18.57;;;12.87;;
3417;SDS011;68007;51.312;12.372;2024-03-22T12:27:20;19.77;;;12.23;;
3417;SDS011;68007;51.312;12.372;2024-03-22T12:29:47;20.27;;;12.27;;
3417;SDS011;68007;51.312;12.372;2024-03-22T12:32:14;19.30;;;11.87;;
3417;SDS011;68007;51.312;12.372;2024-03-22T12:34:41;24.20;;;12.67;;
3417;SDS011;68007;51.312;12.372;2024-03-22T12:37:08;23.07;;;13.60;;
3417;SDS011;68007;51.312;12.372;2024-03-22T12:39:35;16.80;;;11.93;;
3417;SDS011;68007;51.312;12.372;2024-03-22T12:42:03;20.43;;;13.33;;
3417;SDS011;68007;51.312;12.372;2024-03-22T12:44:31;21.13;;;13.50;;
3417;SDS011;68007;51.312;12.372;2024-03-22T12:46:58;20.73;;;13.33;;
3417;SDS011;68007;51.312;12.372;2024-03-22T12:49:25;25.53;;;14.10;;
3417;SDS011;68007;51.312;12.372;2024-03-22T12:51:52;25.00;;;13.10;;
3417;SDS011;68007;51.312;12.372;2024-03-22T12:54:19;21.20;;;13.27;;
3417;SDS011;68007;51.312;12.372;2024-03-22T12:56:47;27.87;;;14.83;;
3417;SDS011;68007;51.312;12.372;2024-03-22T12:59:14;27.10;;;16.03;;
3417;SDS011;68007;51.312;12.372;2024-03-22T13:01:42;20.07;;;12.80;;
3417;SDS011;68007;51.312;12.372;2024-03-22T13:04:09;28.40;;;15.20;;
3417;SDS011;68007;51.312;12.372;2024-03-22T13:06:37;27.13;;;14.60;;
3417;SDS011;68007;51.312;12.372;2024-03-22T13:09:04;25.83;;;14.27;;
3417;SDS011;68007;51.312;12.372;2024-03-22T13:11:31;21.00;;;13.90;;
3417;SDS011;68007;51.312;12.372;2024-03-22T13:13:58;25.97;;;14.37;;
3417;SDS011;68007;51.312;12.372;2024-03-22T13:16:26;19.60;;;13.23;;
3417;SDS011;68007;51.312;12.372;2024-03-22T13:18:54;26.00;;;13.57;;
3417;SDS011;68007;51.312;12.372;2024-03-22T13:21:22;24.83;;;13.43;;
3417;SDS011;68007;51.312;12.372;2024-03-22T13:23:48;22.47;;;12.20;;
3417;SDS011;68007;51.312;12.372;2024-03-22T13:26:16;22.17;;;13.00;;
3417;SDS011;68007;51.312;12.372;2024-03-22T13:28:42;19.93;;;10.93;;
3417;SDS011;68007;51.312;12.372;2024-03-22T13:31:10;21.47;;;11.60;;
3417;SDS011;68007;51.312;12.372;2024-03-22T13:33:36;20.70;;;12.53;;
3417;SDS011;68007;51.312;12.372;2024-03-22T13:36:06;18.10;;;12.00;;
3417;SDS011;68007;51.312;12.372;2024-03-22T13:38:33;17.37;;;11.47;;
3417;SDS011;68007;51.312;12.372;2024-03-22T13:41:00;24.57;;;12.23;;
3417;SDS011;68007;51.312;12.372;2024-03-22T13:43:29;26.70;;;13.10;;
3417;SDS011;68007;51.312;12.372;2024-03-22T13:45:57;20.97;;;11.83;;
3417;SDS011;68007;51.312;12.372;2024-03-22T13:48:24;18.00;;;11.57;;
3417;SDS011;68007;51.312;12.372;2024-03-22T13:50:52;19.60;;;13.10;;
3417;SDS011;68007;51.312;12.372;2024-03-22T13:53:21;18.60;;;12.87;;
3417;SDS011;68007;51.312;12.372;2024-03-22T13:55:49;20.90;;;12.13;;
3417;SDS011;68007;51.312;12.372;2024-03-22T13:58:15;23.87;;;11.83;;
3417;SDS011;68007;51.312;12.372;2024-03-22T14:00:44;20.13;;;12.50;;
3417;SDS011;68007;51.312;12.372;2024-03-22T14:03:10;23.27;;;13.70;;
3417;SDS011;68007;51.312;12.372;2024-03-22T14:05:38;19.17;;;12.40;;
3417;SDS011;68007;51.312;12.372;2024-03-22T14:08:05;17.53;;;12.07;;
3417;SDS011;68007;51.312;12.372;2024-03-22T14:10:34;18.10;;;12.83;;
3417;SDS011;68007;51.312;12.372;2024-03-22T14:13:01;21.53;;;11.60;;
3417;SDS011;68007;51.312;12.372;2024-03-22T14:15:29;22.70;;;11.57;;
3417;SDS011;68007;51.312;12.372;2024-03-22T14:17:57;20.30;;;12.23;;
3417;SDS011;68007;51.312;12.372;2024-03-22T14:20:25;18.03;;;11.03;;
3417;SDS011;68007;51.312;12.372;2024-03-22T14:22:52;20.27;;;11.27;;
3417;SDS011;68007;51.312;12.372;2024-03-22T14:25:19;17.20;;;11.30;;
3417;SDS011;68007;51.312;12.372;2024-03-22T14:27:48;18.10;;;11.53;;
3417;SDS011;68007;51.312;12.372;2024-03-22T14:30:15;20.73;;;10.77;;
3417;SDS011;68007;51.312;12.372;2024-03-22T14:32:42;19.97;;;12.10;;